Portada
METAR-TAF:

METAR-TAF

Aeroports :

Parsabad, Iran

latitud: 39-36-13N, longitud: 47-52-53E, altitud: 77 m

Observació

L'informe es va fer fa 49 minuts, a les 06:00 UTC
Vent calma
Temperatura 6°C
Humitat 100%
Pressió 1017 hPa
Visibilitat: 0400 m
Cel cobert a una alçada de 500 ft
boira

METAR: OITP 210600Z 00000KT 0400 FG OVC005 06/06 Q1017

Hora: 10:19 (06:49 UTC)


TAF: manca

Observacions i pronòstics meteorològics de més de 4000 aeroports (METAR i TAF).

Les estacions disponibles són els punts grocs i vermells al mapa.

Posi el ratolí al punt desitjat per veure el nom de l'estació.

Feu clic per veure les observacions i els pronòstics meteorològics.

Per canviar el mapa: feu clic els botons verds amb una creu de color negre per apropar; al botó verd amb un guió per allunyar la imatge; o en les fletxes verdes per a mapes adjacents.


METAR-TAF: